Time;durP1;ratioP1;P1;durP2;ratioP2;P2;SDS_P1;SDS_P2;PMS_P1;PMS_P2;Temp;Humidity;BMP_temperature;BMP_pressure;BME280_temperature;BME280_humidity;BME280_pressure;Samples;Min_cycle;Max_cycle;Signal;HPM_P1;HPM_P2
2021/03/04 00:02:03;;;;;;;26.30;14.07;;;;;;;8.58;45.27;95515.59;5013548;28;20185;-75
2021/03/04 00:04:28;;;;;;;24.07;12.77;;;;;;;8.28;46.48;95517.34;5013569;28;20239;-72
2021/03/04 00:06:54;;;;;;;32.13;13.43;;;;;;;8.38;46.76;95517.06;5013500;28;20224;-71
2021/03/04 00:09:19;;;;;;;33.83;13.07;;;;;;;8.33;46.73;95514.53;5013380;28;20176;-72
2021/03/04 00:11:45;;;;;;;23.67;12.07;;;;;;;8.23;46.29;95503.09;5013472;28;20173;-71
2021/03/04 00:14:10;;;;;;;23.50;13.13;;;;;;;8.19;46.99;95488.88;5013122;28;20197;-71
2021/03/04 00:16:36;;;;;;;32.67;14.33;;;;;;;8.25;46.60;95504.66;5013200;28;20178;-71
2021/03/04 00:19:01;;;;;;;23.97;13.63;;;;;;;8.18;46.83;95499.81;5012985;28;20184;-71
2021/03/04 00:21:27;;;;;;;28.40;13.07;;;;;;;8.20;47.15;95495.75;5013248;28;20240;-73
2021/03/04 00:23:52;;;;;;;29.93;13.53;;;;;;;8.01;47.87;95495.28;5013202;28;20173;-71
2021/03/04 00:26:17;;;;;;;27.63;13.27;;;;;;;7.94;48.07;95498.41;5012973;28;20173;-74
2021/03/04 00:28:43;;;;;;;30.77;13.53;;;;;;;8.10;48.12;95493.41;5013237;28;20663;-74
2021/03/04 00:31:08;;;;;;;30.87;14.57;;;;;;;8.21;47.63;95489.34;5012811;28;20165;-74
2021/03/04 00:33:34;;;;;;;37.50;16.57;;;;;;;8.27;48.06;95486.53;5012921;28;20169;-73
2021/03/04 00:35:59;;;;;;;36.73;16.63;;;;;;;8.26;47.27;95482.31;5012756;28;20195;-71
2021/03/04 00:38:25;;;;;;;36.47;17.33;;;;;;;8.16;47.56;95488.72;5012239;28;20571;-71
2021/03/04 00:40:50;;;;;;;37.80;17.13;;;;;;;8.05;47.46;95482.16;5012677;28;20185;-71
2021/03/04 00:43:16;;;;;;;36.00;16.63;;;;;;;7.91;47.39;95461.84;5012865;28;20170;-72
2021/03/04 00:45:41;;;;;;;34.13;15.87;;;;;;;7.98;47.53;95472.00;5012924;28;20682;-71
2021/03/04 00:48:08;;;;;;;34.07;15.97;;;;;;;7.82;47.40;95454.94;5012558;28;20173;-70
2021/03/04 00:50:34;;;;;;;30.37;14.80;;;;;;;7.88;47.97;95472.31;5012672;28;20644;-73
2021/03/04 00:52:59;;;;;;;28.37;13.90;;;;;;;7.86;47.66;95461.97;5011660;28;20459;-72
2021/03/04 00:55:25;;;;;;;32.40;13.63;;;;;;;7.60;48.71;95469.94;5011862;28;20208;-73
2021/03/04 00:57:50;;;;;;;30.17;14.77;;;;;;;7.60;48.93;95461.97;5010869;28;20185;-70
2021/03/04 01:00:16;;;;;;;34.87;15.07;;;;;;;7.86;47.56;95455.88;5012653;28;20173;-71
2021/03/04 01:02:41;;;;;;;32.13;14.53;;;;;;;7.54;48.99;95457.91;5012377;28;20173;-73
2021/03/04 01:05:07;;;;;;;31.87;15.17;;;;;;;7.66;48.71;95451.97;5012305;28;20180;-72
2021/03/04 01:07:33;;;;;;;44.07;18.47;;;;;;;7.75;47.63;95433.38;5012298;28;20177;-72
2021/03/04 01:09:58;;;;;;;35.80;16.70;;;;;;;7.81;47.68;95440.88;5027793;28;20335;-74
2021/03/04 01:12:24;;;;;;;34.87;15.93;;;;;;;7.73;47.99;95438.97;5012413;28;20169;-74
2021/03/04 01:14:49;;;;;;;37.33;18.60;;;;;;;7.56;49.15;95437.09;5012056;28;20193;-72
2021/03/04 01:17:15;;;;;;;36.90;17.17;;;;;;;7.60;49.39;95438.03;5012330;28;20656;-74
2021/03/04 01:19:40;;;;;;;37.10;17.33;;;;;;;7.74;49.07;95431.78;5011953;28;20187;-72
2021/03/04 01:22:06;;;;;;;35.27;15.93;;;;;;;7.75;48.46;95433.38;5012259;28;20555;-71
2021/03/04 01:24:31;;;;;;;37.00;16.13;;;;;;;7.57;49.31;95435.22;5011934;28;20663;-74
2021/03/04 01:26:57;;;;;;;34.67;15.17;;;;;;;7.59;49.22;95433.06;5010579;28;20240;-72
2021/03/04 01:29:23;;;;;;;38.27;14.43;;;;;;;7.68;48.54;95426.63;5011986;28;20180;-74
2021/03/04 01:31:48;;;;;;;31.50;14.30;;;;;;;7.53;49.24;95421.78;5012256;28;20263;-74
2021/03/04 01:34:14;;;;;;;35.57;15.50;;;;;;;7.39;49.65;95411.28;5012102;28;20583;-72
2021/03/04 01:36:39;;;;;;;35.00;14.30;;;;;;;7.50;49.26;95417.09;5011607;28;20219;-72
2021/03/04 01:39:05;;;;;;;28.13;15.13;;;;;;;7.41;49.79;95409.13;5012036;28;20192;-72
2021/03/04 01:41:31;;;;;;;28.40;14.10;;;;;;;7.37;49.16;95404.75;5011765;28;20283;-74
2021/03/04 01:43:56;;;;;;;32.33;15.13;;;;;;;7.32;49.93;95400.34;5012059;28;20416;-72
2021/03/04 01:46:22;;;;;;;30.20;14.57;;;;;;;7.40;49.68;95404.88;5011707;28;20177;-74
2021/03/04 01:48:47;;;;;;;34.10;14.27;;;;;;;7.35;49.83;95399.75;5011894;28;20259;-75
2021/03/04 01:51:13;;;;;;;29.73;13.93;;;;;;;7.27;50.09;95402.38;5009932;28;20224;-72
2021/03/04 01:53:38;;;;;;;26.60;13.83;;;;;;;7.26;50.24;95393.63;5011655;28;20195;-71
2021/03/04 01:56:04;;;;;;;33.07;15.47;;;;;;;7.27;50.28;95391.75;5010450;28;20169;-72
2021/03/04 01:58:30;;;;;;;26.27;13.73;;;;;;;7.29;49.25;95389.56;5011723;28;20173;-73
2021/03/04 02:00:55;;;;;;;28.50;13.77;;;;;;;7.21;48.61;95377.84;5010664;28;20168;-74
2021/03/04 02:03:22;;;;;;;29.73;14.97;;;;;;;7.32;50.36;95386.28;5010365;28;20550;-71
2021/03/04 02:05:47;;;;;;;32.53;15.77;;;;;;;7.10;50.00;95360.63;5011563;28;20678;-71
2021/03/04 02:08:24;;;;;;;30.40;14.90;;;;;;;7.18;49.73;95388.28;5010278;28;20420;-72
2021/03/04 02:10:53;;;;;;;28.93;14.90;;;;;;;7.30;50.20;95383.19;5011606;28;20310;-74
2021/03/04 02:13:30;;;;;;;43.07;15.73;;;;;;;7.28;50.07;95383.47;5009900;28;20504;-72
2021/03/04 02:16:01;;;;;;;32.87;14.83;;;;;;;7.26;50.16;95379.56;5011701;28;20890;-73
2021/03/04 02:18:28;;;;;;;27.37;12.53;;;;;;;7.14;50.41;95388.16;5010117;28;20412;-71
2021/03/04 02:21:31;;;;;;;32.20;15.50;;;;;;;7.04;50.69;95388.44;5011509;28;20507;-72
2021/03/04 02:24:28;;;;;;;33.63;14.53;;;;;;;7.13;50.20;95382.06;5011684;28;20431;-76
2021/03/04 02:27:09;;;;;;;32.53;15.17;;;;;;;7.08;50.27;95379.56;5011137;28;20969;-75
2021/03/04 02:29:41;;;;;;;30.87;14.67;;;;;;;6.88;51.03;95385.44;5011334;28;20420;-72
2021/03/04 02:32:08;;;;;;;33.87;16.20;;;;;;;6.12;52.69;95379.50;5011464;28;20420;-71
2021/03/04 02:34:33;;;;;;;33.37;15.77;;;;;;;6.60;51.50;95390.97;5010073;28;20529;-72
2021/03/04 02:36:59;;;;;;;31.97;16.13;;;;;;;6.24;52.64;95385.06;5010281;28;20428;-74
2021/03/04 02:39:25;;;;;;;30.50;15.37;;;;;;;6.34;53.05;95380.25;5010211;28;20644;-72
2021/03/04 02:41:51;;;;;;;41.57;18.47;;;;;;;6.70;51.76;95378.50;5010014;28;20412;-70
2021/03/04 02:44:18;;;;;;;37.20;17.70;;;;;;;6.44;52.72;95370.47;5011606;28;20185;-71
2021/03/04 02:46:43;;;;;;;37.93;17.77;;;;;;;6.70;52.30;95383.81;4993805;28;20177;-70
2021/03/04 02:49:09;;;;;;;37.20;17.97;;;;;;;6.32;52.56;95379.78;5010154;28;20921;-71
2021/03/04 02:51:36;;;;;;;40.77;18.07;;;;;;;6.05;53.81;95369.34;5010934;28;20221;-71
2021/03/04 02:54:01;;;;;;;31.60;16.03;;;;;;;6.54;51.64;95381.59;5010034;28;20686;-70
2021/03/04 02:56:27;;;;;;;38.53;17.23;;;;;;;6.34;52.39;95382.09;5009690;28;20554;-71
2021/03/04 02:58:53;;;;;;;41.87;17.93;;;;;;;6.46;52.08;95381.56;5010305;28;20589;-71
2021/03/04 03:01:19;;;;;;;38.73;18.00;;;;;;;6.48;51.45;95374.84;5009971;28;20586;-71
2021/03/04 03:03:45;;;;;;;37.63;16.77;;;;;;;6.62;51.31;95374.72;5013143;28;20271;-71
2021/03/04 03:06:11;;;;;;;39.17;17.90;;;;;;;6.59;51.81;95378.00;5013445;28;20514;-71
2021/03/04 03:08:36;;;;;;;39.83;17.47;;;;;;;6.35;52.60;95386.34;5012968;28;20519;-71
2021/03/04 03:11:02;;;;;;;41.17;15.87;;;;;;;6.20;52.81;95370.81;5013371;28;20177;-71
2021/03/04 03:13:28;;;;;;;33.53;14.03;;;;;;;6.54;51.83;95383.44;5014203;28;20188;-70
2021/03/04 03:15:53;;;;;;;39.33;15.70;;;;;;;6.63;51.43;95379.75;4995569;28;20232;-71
2021/03/04 03:18:19;;;;;;;32.03;16.57;;;;;;;6.62;51.60;95377.38;5014124;28;20531;-70
2021/03/04 03:20:44;;;;;;;42.10;17.93;;;;;;;6.12;52.87;95367.06;5014226;28;20169;-71
2021/03/04 03:23:10;;;;;;;34.40;17.03;;;;;;;6.40;51.91;95382.75;5014075;28;20264;-74
2021/03/04 03:25:36;;;;;;;46.93;18.70;;;;;;;6.54;51.35;95370.19;5014262;28;20308;-73
2021/03/04 03:28:01;;;;;;;35.53;15.97;;;;;;;6.40;52.42;95375.59;5013742;28;20664;-70
2021/03/04 03:30:28;;;;;;;38.63;17.33;;;;;;;6.49;52.16;95373.75;5013780;28;20212;-74
2021/03/04 03:32:55;;;;;;;40.13;17.80;;;;;;;6.43;52.90;95374.19;5012949;28;20205;-71
2021/03/04 03:35:21;;;;;;;33.90;16.83;;;;;;;6.29;52.31;95359.19;5013804;28;20476;-71
2021/03/04 03:37:46;;;;;;;35.50;16.73;;;;;;;6.37;51.96;95370.91;4996599;28;21042;-71
2021/03/04 03:40:12;;;;;;;37.50;18.40;;;;;;;6.24;52.63;95366.50;5012544;28;20181;-71
2021/03/04 03:42:40;;;;;;;41.43;18.20;;;;;;;6.38;52.32;95366.38;5013875;28;20208;-72
2021/03/04 03:45:07;;;;;;;45.27;19.00;;;;;;;6.14;52.81;95364.88;4996662;28;20177;-72
2021/03/04 03:47:35;;;;;;;41.55;17.38;;;;;;;6.22;52.54;95356.16;5012671;28;20527;-71
2021/03/04 03:50:01;;;;;;;38.30;17.90;;;;;;;6.41;52.20;95363.91;4996213;28;20177;-73
2021/03/04 03:52:30;;;;;;;37.27;17.67;;;;;;;6.24;53.10;95350.56;5012473;28;20470;-72
2021/03/04 03:54:57;;;;;;;37.63;17.13;;;;;;;6.28;53.14;95367.41;4996320;28;20228;-72
2021/03/04 03:57:23;;;;;;;30.95;16.67;;;;;;;6.21;52.99;95361.78;5012472;28;20227;-72
2021/03/04 03:59:48;;;;;;;37.17;17.63;;;;;;;6.26;52.94;95359.00;5012708;28;20208;-72
2021/03/04 04:02:14;;;;;;;35.60;16.47;;;;;;;6.36;52.27;95350.78;5012280;28;20625;-72
2021/03/04 04:04:39;;;;;;;33.80;16.80;;;;;;;6.32;52.38;95355.13;5013739;28;20267;-72
2021/03/04 04:07:05;;;;;;;31.03;15.03;;;;;;;6.26;52.68;95353.69;5012131;28;20173;-71
2021/03/04 04:09:31;;;;;;;33.77;16.87;;;;;;;5.84;54.31;95347.84;5012301;28;20173;-73
2021/03/04 04:11:56;;;;;;;35.10;17.80;;;;;;;6.00;53.28;95348.25;4995662;28;20184;-71
2021/03/04 04:14:22;;;;;;;41.83;15.27;;;;;;;6.06;53.56;95349.69;5013516;28;20291;-72
2021/03/04 04:16:47;;;;;;;38.50;16.67;;;;;;;6.06;52.83;95349.69;5011990;28;20180;-73
2021/03/04 04:19:12;;;;;;;36.20;17.23;;;;;;;5.94;54.03;95342.31;5013366;28;20177;-71
2021/03/04 04:21:38;;;;;;;34.90;15.80;;;;;;;6.10;52.40;95351.44;5012989;28;20227;-71
2021/03/04 04:24:04;;;;;;;39.83;16.53;;;;;;;6.05;52.41;95348.13;5012108;28;20169;-72
2021/03/04 04:26:29;;;;;;;34.07;16.20;;;;;;;5.77;53.32;95344.81;5011951;28;20181;-72
2021/03/04 04:28:55;;;;;;;34.17;16.07;;;;;;;5.38;53.80;95345.50;5012792;28;20423;-71
2021/03/04 04:31:21;;;;;;;33.60;17.27;;;;;;;5.27;55.53;95348.38;5013233;28;20300;-71
2021/03/04 04:33:46;;;;;;;34.35;16.17;;;;;;;5.68;54.13;95333.41;5012919;28;20258;-71
2021/03/04 04:36:12;;;;;;;35.70;16.53;;;;;;;5.66;54.20;95343.50;5013107;28;20296;-70
2021/03/04 04:38:37;;;;;;;38.17;17.37;;;;;;;5.61;54.10;95338.31;5012906;28;20649;-72
2021/03/04 04:41:03;;;;;;;33.17;16.03;;;;;;;5.87;53.23;95330.53;5012944;28;20170;-73
2021/03/04 04:43:28;;;;;;;30.77;15.20;;;;;;;5.82;53.06;95328.81;5011412;28;20205;-71
2021/03/04 04:45:54;;;;;;;29.77;15.17;;;;;;;5.83;53.57;95322.41;5012966;28;20180;-72
2021/03/04 04:48:19;;;;;;;29.80;14.30;;;;;;;5.70;54.07;95329.34;5012820;28;20204;-73
2021/03/04 04:50:45;;;;;;;33.40;15.07;;;;;;;5.78;53.54;95322.53;5012363;28;20639;-73
2021/03/04 04:53:11;;;;;;;35.40;14.87;;;;;;;5.83;53.36;95320.53;5012676;28;20193;-74
2021/03/04 04:55:36;;;;;;;36.77;15.33;;;;;;;5.85;53.21;95317.59;5010792;28;20253;-72
2021/03/04 04:58:02;;;;;;;33.43;15.10;;;;;;;5.91;52.63;95316.41;5012503;28;20200;-73
2021/03/04 05:00:27;;;;;;;35.80;14.77;;;;;;;5.86;53.29;95310.44;5012571;28;20561;-73
2021/03/04 05:02:53;;;;;;;39.90;16.43;;;;;;;5.91;53.68;95307.66;5012685;28;20180;-73
2021/03/04 05:05:18;;;;;;;36.70;16.80;;;;;;;5.91;53.25;95312.97;5010873;28;20192;-72
2021/03/04 05:07:44;;;;;;;34.90;16.37;;;;;;;5.95;53.13;95306.78;5012455;28;20164;-73
2021/03/04 05:10:10;;;;;;;38.27;16.17;;;;;;;5.86;54.16;95303.25;5012388;28;20610;-73
2021/03/04 05:12:35;;;;;;;35.07;16.23;;;;;;;5.85;53.52;95301.72;5011120;28;20671;-73
2021/03/04 05:15:02;;;;;;;35.90;18.67;;;;;;;5.88;53.58;95298.44;5012175;28;20467;-71
2021/03/04 05:17:28;;;;;;;34.33;17.00;;;;;;;5.89;53.40;95307.94;5012138;28;20173;-73
2021/03/04 05:19:53;;;;;;;49.73;18.63;;;;;;;5.98;53.00;95302.72;5012191;28;20652;-73
2021/03/04 05:22:19;;;;;;;51.77;17.37;;;;;;;5.96;53.08;95300.38;5010695;28;20193;-72
2021/03/04 05:24:45;;;;;;;37.90;17.03;;;;;;;5.99;52.91;95296.34;5011674;28;20779;-73
2021/03/04 05:27:10;;;;;;;46.47;18.70;;;;;;;5.92;53.56;95296.00;5011930;28;20200;-72
2021/03/04 05:29:36;;;;;;;46.40;19.87;;;;;;;5.57;54.31;95299.22;5011875;28;20184;-73
2021/03/04 05:32:01;;;;;;;42.70;18.17;;;;;;;5.48;55.46;95303.66;5011820;28;20188;-72
2021/03/04 05:34:27;;;;;;;43.57;18.27;;;;;;;5.79;53.32;95293.09;5011976;28;20208;-71
2021/03/04 05:36:52;;;;;;;53.17;20.80;;;;;;;5.77;53.93;95292.59;5012044;28;20181;-71
2021/03/04 05:39:18;;;;;;;48.60;23.27;;;;;;;5.94;53.37;95289.28;5011715;28;20173;-73
2021/03/04 05:41:43;;;;;;;34.10;15.80;;;;;;;5.88;52.94;95285.19;5011982;28;20169;-72
2021/03/04 05:44:09;;;;;;;39.07;16.63;;;;;;;6.15;52.29;95292.19;5010421;28;20227;-72
2021/03/04 05:46:34;;;;;;;36.83;15.63;;;;;;;6.13;52.12;95283.78;5011774;28;20173;-74
2021/03/04 05:49:00;;;;;;;34.47;16.33;;;;;;;6.21;53.22;95280.34;5011686;28;20264;-74
2021/03/04 05:51:26;;;;;;;44.07;16.67;;;;;;;6.30;52.13;95281.19;5011827;28;20229;-73
2021/03/04 05:53:58;;;;;;;33.73;16.13;;;;;;;6.33;51.86;95285.06;5011534;28;20447;-74
2021/03/04 05:56:23;;;;;;;36.20;15.07;;;;;;;6.42;51.31;95290.41;5011823;28;20171;-72
2021/03/04 05:58:50;;;;;;;37.03;17.20;;;;;;;6.24;52.10;95294.88;5011634;28;20495;-72
2021/03/04 06:01:15;;;;;;;36.90;15.83;;;;;;;6.33;51.47;95290.38;5010533;28;20580;-73
2021/03/04 06:03:40;;;;;;;32.53;14.50;;;;;;;6.59;51.42;95285.94;5011693;28;20416;-75
2021/03/04 06:06:07;;;;;;;43.87;15.57;;;;;;;6.48;52.01;95286.53;5011561;28;20255;-75
2021/03/04 06:08:33;;;;;;;37.57;15.87;;;;;;;6.63;51.02;95284.22;5010486;28;20172;-71
2021/03/04 06:10:59;;;;;;;31.07;14.23;;;;;;;6.73;50.26;95277.03;5011433;28;20412;-74
2021/03/04 06:13:25;;;;;;;29.73;13.47;;;;;;;6.83;49.57;95276.75;5011702;28;20942;-74
2021/03/04 06:15:52;;;;;;;39.53;14.50;;;;;;;6.91;48.92;95273.34;5011230;28;20468;-73
2021/03/04 06:18:17;;;;;;;29.37;14.70;;;;;;;7.08;48.27;95288.47;5011849;28;20229;-75
2021/03/04 06:20:43;;;;;;;32.93;13.67;;;;;;;7.20;48.02;95277.22;5011223;28;20981;-74
2021/03/04 06:23:09;;;;;;;26.20;13.43;;;;;;;7.40;47.18;95281.88;5011601;28;20181;-75
2021/03/04 06:25:35;;;;;;;31.57;13.80;;;;;;;7.40;47.76;95281.88;5011369;28;20640;-74
2021/03/04 06:28:00;;;;;;;33.63;15.03;;;;;;;7.11;48.68;95272.69;5011439;28;20169;-72
2021/03/04 06:30:36;;;;;;;29.10;14.53;;;;;;;7.38;47.33;95262.84;5011141;28;20466;-75
2021/03/04 06:33:06;;;;;;;41.90;16.53;;;;;;;7.49;47.67;95277.34;5010817;28;20188;-73
2021/03/04 06:35:33;;;;;;;40.73;15.20;;;;;;;7.36;48.16;95280.97;5010262;28;21044;-71
2021/03/04 06:37:58;;;;;;;31.13;13.73;;;;;;;7.49;47.50;95280.00;5012721;28;20800;-74
2021/03/04 06:40:31;;;;;;;38.10;15.97;;;;;;;7.46;47.85;95288.59;5014007;28;20917;-72
2021/03/04 06:42:56;;;;;;;32.67;14.93;;;;;;;7.59;47.34;95281.56;5012049;28;20172;-71
2021/03/04 06:45:31;;;;;;;42.10;16.27;;;;;;;7.55;48.19;95289.38;5013434;28;20438;-72
2021/03/04 06:48:07;;;;;;;40.90;16.00;;;;;;;7.68;48.21;95283.09;5014638;28;20238;-72
2021/03/04 06:50:32;;;;;;;37.47;17.13;;;;;;;7.75;48.04;95284.50;5014936;28;20785;-73
2021/03/04 06:52:58;;;;;;;55.27;18.77;;;;;;;7.90;47.46;95279.44;5014362;28;20468;-75
2021/03/04 06:55:23;;;;;;;39.13;19.73;;;;;;;7.66;47.70;95279.19;5014760;28;20371;-74
2021/03/04 06:58:01;;;;;;;56.30;20.80;;;;;;;7.39;48.82;95277.66;5014499;28;20643;-73
2021/03/04 07:00:27;;;;;;;45.23;20.10;;;;;;;7.66;48.04;95277.31;5014750;28;20183;-72
2021/03/04 07:02:56;;;;;;;42.80;20.00;;;;;;;7.56;48.49;95244.97;5013062;28;20428;-71
2021/03/04 07:05:23;;;;;;;40.40;19.93;;;;;;;7.84;48.03;95269.28;5014619;28;20180;-73
2021/03/04 07:07:53;;;;;;;41.77;19.77;;;;;;;7.96;48.12;95264.09;5014308;28;20419;-71
2021/03/04 07:10:19;;;;;;;45.67;19.13;;;;;;;8.13;47.42;95271.22;5013060;28;20522;-71
2021/03/04 07:12:46;;;;;;;45.77;19.67;;;;;;;8.43;45.92;95267.53;4996402;28;20536;-71
2021/03/04 07:15:15;;;;;;;44.00;20.13;;;;;;;8.55;46.14;95261.50;5014331;28;20475;-72
2021/03/04 07:17:42;;;;;;;40.70;20.00;;;;;;;8.39;45.75;95263.16;5012914;28;20428;-73
2021/03/04 07:20:11;;;;;;;43.63;20.53;;;;;;;8.58;46.47;95255.53;5014403;28;20691;-73
2021/03/04 07:22:37;;;;;;;39.10;21.23;;;;;;;8.77;45.02;95260.44;4997168;28;20826;-73
2021/03/04 07:25:02;;;;;;;42.63;20.67;;;;;;;8.95;45.10;95255.75;5012847;28;20423;-72
2021/03/04 07:27:28;;;;;;;36.87;18.80;;;;;;;8.81;45.09;95253.34;5014121;28;20196;-71
2021/03/04 07:29:53;;;;;;;39.90;19.20;;;;;;;9.24;44.24;95255.66;4996638;28;20180;-71
2021/03/04 07:32:21;;;;;;;42.67;20.67;;;;;;;9.27;42.96;95251.59;5014066;28;20672;-71
2021/03/04 07:34:46;;;;;;;40.93;19.80;;;;;;;9.09;44.21;95245.63;5013430;28;20185;-72
2021/03/04 07:37:14;;;;;;;40.97;20.63;;;;;;;9.18;44.39;95235.66;5012353;28;20850;-73
2021/03/04 07:39:41;;;;;;;41.77;21.30;;;;;;;9.31;43.16;95243.69;4996003;28;20619;-71
2021/03/04 07:42:21;;;;;;;47.77;21.53;;;;;;;8.93;44.35;95226.00;4996030;28;20467;-72
2021/03/04 07:44:47;;;;;;;45.40;20.20;;;;;;;9.40;43.60;95234.53;5011875;28;20444;-72
2021/03/04 07:47:13;;;;;;;40.07;19.83;;;;;;;9.59;43.26;95220.69;5012123;28;20559;-72
2021/03/04 07:49:43;;;;;;;42.07;18.27;;;;;;;9.86;42.92;95223.84;5012058;28;20205;-71
2021/03/04 07:52:18;;;;;;;40.73;19.50;;;;;;;10.06;41.37;95220.31;4994440;28;20369;-72
2021/03/04 07:54:47;;;;;;;37.57;18.37;;;;;;;10.02;41.48;95211.41;5012173;28;20459;-69
2021/03/04 07:57:16;;;;;;;37.80;18.73;;;;;;;10.09;42.01;95208.97;5013677;28;20462;-71
2021/03/04 07:59:59;;;;;;;39.50;17.37;;;;;;;10.32;42.21;95212.00;5011791;28;20527;-72
2021/03/04 08:02:39;;;;;;;40.43;19.63;;;;;;;10.51;41.57;95206.88;5013534;28;20408;-72
2021/03/04 08:05:19;;;;;;;39.27;18.20;;;;;;;10.81;40.69;95209.25;5012349;28;20427;-72
2021/03/04 08:07:49;;;;;;;43.17;18.57;;;;;;;11.08;39.92;95205.06;5013309;28;20423;-72
2021/03/04 08:10:16;;;;;;;34.13;16.83;;;;;;;11.19;39.37;95205.34;5013343;28;20814;-72
2021/03/04 08:12:51;;;;;;;38.33;17.73;;;;;;;11.27;39.39;95202.50;5013078;28;20505;-72
2021/03/04 08:15:21;;;;;;;41.37;17.90;;;;;;;11.23;38.46;95192.88;5013484;28;20839;-71
2021/03/04 08:17:47;;;;;;;41.03;18.30;;;;;;;11.32;39.16;95180.09;5011656;28;20422;-71
2021/03/04 08:20:16;;;;;;;37.63;16.97;;;;;;;11.55;38.43;95193.69;5013233;28;20420;-73
2021/03/04 08:22:49;;;;;;;35.40;18.27;;;;;;;11.81;38.52;95187.84;5011740;28;20169;-72
2021/03/04 08:25:23;;;;;;;38.83;18.10;;;;;;;12.08;37.57;95188.91;4995936;28;20511;-73
2021/03/04 08:27:49;;;;;;;33.47;17.77;;;;;;;12.22;36.91;95178.53;5011691;28;20561;-73
2021/03/04 08:30:15;;;;;;;35.80;17.07;;;;;;;12.11;37.27;95175.59;5013001;28;20412;-72
2021/03/04 08:32:42;;;;;;;36.40;16.47;;;;;;;12.04;36.95;95180.78;5012918;28;20599;-73
2021/03/04 08:35:18;;;;;;;34.33;16.30;;;;;;;11.97;37.20;95161.91;5011694;28;20847;-74
2021/03/04 08:37:44;;;;;;;36.23;16.30;;;;;;;12.14;37.42;95166.13;5012815;28;20455;-72
2021/03/04 08:40:10;;;;;;;34.47;17.07;;;;;;;12.30;37.58;95166.09;5012957;28;20455;-72
2021/03/04 08:42:35;;;;;;;26.63;15.57;;;;;;;12.52;37.02;95170.78;5012899;28;20176;-72
2021/03/04 08:45:01;;;;;;;35.17;16.10;;;;;;;12.49;37.16;95163.44;5012570;28;20412;-72
2021/03/04 08:47:26;;;;;;;35.67;17.13;;;;;;;12.52;36.61;95160.09;5012857;28;20165;-73
2021/03/04 08:49:53;;;;;;;38.70;16.27;;;;;;;12.69;36.21;95159.69;5011149;28;20192;-71
2021/03/04 08:52:21;;;;;;;30.83;16.03;;;;;;;12.86;35.55;95155.81;5011164;28;20789;-71
2021/03/04 08:54:51;;;;;;;34.87;18.07;;;;;;;12.89;34.47;95135.56;5011101;28;20463;-72
2021/03/04 08:57:26;;;;;;;37.97;16.83;;;;;;;12.76;34.96;95140.28;5012569;28;20507;-72
2021/03/04 09:00:11;;;;;;;33.07;17.20;;;;;;;12.74;34.98;95137.19;4994580;28;20412;-73
2021/03/04 09:02:37;;;;;;;35.57;16.40;;;;;;;12.75;35.75;95138.75;5011367;28;20424;-72
2021/03/04 09:05:07;;;;;;;41.50;17.80;;;;;;;13.12;36.24;95135.59;5012122;28;20805;-72
2021/03/04 09:07:39;;;;;;;47.70;17.67;;;;;;;13.49;34.91;95130.56;5012399;28;20259;-71
2021/03/04 09:10:06;;;;;;;33.50;15.80;;;;;;;13.52;34.66;95137.13;5012141;28;20463;-73
2021/03/04 09:12:45;;;;;;;37.77;16.63;;;;;;;13.70;34.14;95130.16;5010632;28;20440;-72
2021/03/04 09:15:12;;;;;;;36.20;17.77;;;;;;;13.76;33.91;95121.44;5011889;28;20532;-73
2021/03/04 09:17:41;;;;;;;36.53;17.83;;;;;;;13.87;33.77;95110.88;5012061;28;20416;-72
2021/03/04 09:20:07;;;;;;;35.33;18.47;;;;;;;13.75;33.94;95114.53;5010705;28;20424;-73
2021/03/04 09:22:34;;;;;;;34.60;18.03;;;;;;;13.84;33.84;95111.59;5011016;28;20567;-73
2021/03/04 09:24:59;;;;;;;34.17;17.07;;;;;;;13.97;34.33;95106.78;5010671;28;20173;-73
2021/03/04 09:27:25;;;;;;;33.87;16.90;;;;;;;14.17;33.60;95102.09;5011009;28;21016;-72
2021/03/04 09:29:50;;;;;;;32.70;15.40;;;;;;;14.16;32.65;95104.03;5010628;28;20207;-72
2021/03/04 09:32:16;;;;;;;30.53;16.37;;;;;;;14.37;33.08;95098.19;5012032;28;20236;-72
2021/03/04 09:34:43;;;;;;;32.57;16.87;;;;;;;14.46;32.51;95085.22;5007539;28;20231;-72
2021/03/04 09:37:16;;;;;;;260.63;33.47;;;;;;;14.42;33.45;95087.13;5009530;28;20189;-72
2021/03/04 09:39:47;;;;;;;46.23;17.87;;;;;;;14.73;33.25;95087.91;5010176;28;20464;-72
2021/03/04 09:42:15;;;;;;;40.53;18.73;;;;;;;14.88;31.97;95089.63;5011825;28;20439;-72
2021/03/04 09:44:56;;;;;;;45.93;19.20;;;;;;;14.76;31.89;95065.69;5010418;28;20511;-72
2021/03/04 09:47:26;;;;;;;48.63;17.87;;;;;;;14.82;32.55;95080.34;5011727;28;20787;-72
2021/03/04 09:49:52;;;;;;;35.13;16.57;;;;;;;15.01;31.43;95068.63;5011372;28;20448;-74
2021/03/04 09:52:19;;;;;;;32.10;18.57;;;;;;;14.86;32.18;95067.69;5010225;28;20824;-73
2021/03/04 09:54:45;;;;;;;36.27;18.60;;;;;;;14.99;31.96;95062.84;5011203;28;20577;-73
2021/03/04 09:57:10;;;;;;;34.50;18.00;;;;;;;15.10;31.38;95055.66;5011629;28;20873;-72
2021/03/04 09:59:49;;;;;;;37.20;17.10;;;;;;;15.20;32.85;95056.88;5011576;28;20223;-72
2021/03/04 10:02:15;;;;;;;38.43;19.00;;;;;;;15.00;31.66;95032.91;5011735;28;20175;-73
2021/03/04 10:04:56;;;;;;;40.73;19.30;;;;;;;15.21;32.13;95043.09;5011240;28;20419;-72
2021/03/04 10:07:24;;;;;;;34.10;18.37;;;;;;;15.36;31.49;95038.59;4991869;28;20421;-72
2021/03/04 10:09:49;;;;;;;38.03;18.53;;;;;;;15.58;31.44;95023.41;4991967;28;20547;-72
2021/03/04 10:12:15;;;;;;;36.17;18.10;;;;;;;15.66;31.50;95035.03;4995308;28;21002;-73
2021/03/04 10:14:44;;;;;;;35.43;15.63;;;;;;;15.58;29.48;95028.78;5010745;28;20216;-73
2021/03/04 10:17:10;;;;;;;38.07;14.77;;;;;;;15.82;30.79;95016.66;4995962;28;20174;-72
2021/03/04 10:19:36;;;;;;;31.80;14.43;;;;;;;16.04;29.42;95017.56;4994679;28;20336;-72
2021/03/04 10:22:02;;;;;;;29.13;14.33;;;;;;;16.06;28.63;95013.38;4995316;28;20261;-72
2021/03/04 10:24:27;;;;;;;32.87;14.60;;;;;;;16.09;28.94;95009.91;4995729;28;20185;-70
2021/03/04 10:26:53;;;;;;;28.97;12.73;;;;;;;16.06;29.20;94999.91;4995202;28;20541;-72
2021/03/04 10:29:19;;;;;;;30.73;14.33;;;;;;;16.18;28.84;95001.50;4994148;28;20189;-73
2021/03/04 10:31:44;;;;;;;28.07;13.30;;;;;;;16.21;29.60;94989.94;5009957;28;20190;-72
2021/03/04 10:34:10;;;;;;;35.33;13.93;;;;;;;16.37;28.61;94986.94;4995481;28;20185;-72
2021/03/04 10:36:35;;;;;;;27.27;13.07;;;;;;;16.70;28.22;94983.19;4995327;28;20166;-71
2021/03/04 10:39:01;;;;;;;26.77;14.53;;;;;;;16.65;27.97;94972.78;5002488;28;20267;-71
2021/03/04 10:41:26;;;;;;;29.80;13.73;;;;;;;16.92;28.22;94974.03;5014659;28;20176;-72
2021/03/04 10:43:52;;;;;;;28.80;14.43;;;;;;;17.11;27.84;94964.78;5014985;28;20648;-72
2021/03/04 10:46:17;;;;;;;29.40;13.73;;;;;;;17.42;27.50;94960.56;5015062;28;20212;-73
2021/03/04 10:48:43;;;;;;;30.20;13.57;;;;;;;17.48;26.55;94960.19;5013455;28;20181;-72
2021/03/04 10:51:08;;;;;;;30.13;13.53;;;;;;;17.23;27.56;94960.97;5014830;28;20205;-72
2021/03/04 10:53:34;;;;;;;28.70;13.57;;;;;;;17.45;26.56;94948.22;5014696;28;20227;-72
2021/03/04 10:56:00;;;;;;;27.53;13.97;;;;;;;17.58;27.18;94949.38;5014747;28;20295;-73
2021/03/04 10:58:25;;;;;;;40.17;15.27;;;;;;;18.02;38.28;94950.84;5014656;28;20177;-78
2021/03/04 11:00:51;;;;;;;46.63;14.33;;;;;;;18.17;33.02;94940.75;5014881;28;20180;-77
2021/03/04 11:03:17;;;;;;;36.20;13.87;;;;;;;18.45;33.58;94939.84;5014576;28;20284;-70
2021/03/04 11:05:42;;;;;;;31.93;13.37;;;;;;;18.83;37.74;94926.53;5014529;28;20252;-71
2021/03/04 11:08:08;;;;;;;32.47;13.93;;;;;;;19.34;35.83;94922.28;5014726;28;20181;-72
2021/03/04 11:10:33;;;;;;;27.80;14.90;;;;;;;19.57;31.79;94925.16;5014318;28;20181;-71
2021/03/04 11:12:59;;;;;;;32.67;14.83;;;;;;;19.47;29.31;94909.78;5011540;28;20275;-70
2021/03/04 11:15:25;;;;;;;31.23;14.57;;;;;;;19.48;26.92;94887.72;5013800;28;20698;-70
2021/03/04 11:17:50;;;;;;;34.90;12.80;;;;;;;19.60;26.98;94907.38;5014301;28;20624;-78
2021/03/04 11:20:16;;;;;;;38.10;14.33;;;;;;;19.70;29.96;94895.66;5012674;28;20278;-73
2021/03/04 11:22:42;;;;;;;34.40;13.30;;;;;;;19.93;33.42;94893.09;5012345;28;20184;-72